Terminal Aerodrome Forecast
Issued by NWS

Home | Current Version | Previous Version | Text Only | Print | Product List | Glossary On
Versions: 1 2 3 4 5 6 7 8 9 10 11 12 13 14 15
000
FTUS46 KLOX 232300
TAFSBA
TAF
KSBA 232334Z 2400/2424 15007KT P6SM SKC
     FM240100 33006KT P6SM SKC WS012/34035KT
      TEMPO 2402/2404 33015G25KT
     FM240800 08005KT P6SM SKC
     FM241600 16005KT P6SM SKC
     FM242000 18008KT P6SM SKC=

USA.gov is the U.S. government's official web portal to all federal, state and local government web resources and services.